Time;durP1;ratioP1;P1;durP2;ratioP2;P2;SDS_P1;SDS_P2;PMS_P1;PMS_P2;Temp;Humidity;BMP_temperature;BMP_pressure;BME280_temperature;BME280_humidity;BME280_pressure;Samples;Min_cycle;Max_cycle;Signal;HPM_P1;HPM_P2
2023/01/02 00:01:36;;;;;;;8.83;7.77;;;9.70;99.90;;;;;;5115572;28;20171;-53
2023/01/02 00:04:02;;;;;;;9.93;7.67;;;9.60;99.90;;;;;;5115536;28;20165;-53
2023/01/02 00:06:32;;;;;;;11.33;8.40;;;9.50;99.90;;;;;;5115588;28;20177;-54
2023/01/02 00:08:57;;;;;;;10.40;8.97;;;9.50;99.90;;;;;;5115615;28;20576;-49
2023/01/02 00:11:23;;;;;;;9.67;8.23;;;9.40;99.90;;;;;;5115430;28;20179;-49
2023/01/02 00:13:49;;;;;;;9.80;8.07;;;9.40;99.90;;;;;;5115118;28;20211;-50
2023/01/02 00:16:14;;;;;;;10.87;8.30;;;9.40;99.90;;;;;;5115336;28;20169;-53
2023/01/02 00:18:40;;;;;;;9.87;7.90;;;9.50;99.90;;;;;;5115491;28;20183;-53
2023/01/02 00:21:06;;;;;;;11.13;8.43;;;9.50;99.90;;;;;;5099776;28;20493;-49
2023/01/02 00:23:31;;;;;;;11.43;8.83;;;9.50;99.90;;;;;;5092908;28;20670;-50
2023/01/02 00:25:58;;;;;;;11.53;8.07;;;9.50;99.90;;;;;;5094310;28;20184;-51
2023/01/02 00:28:23;;;;;;;11.30;8.47;;;9.40;99.90;;;;;;5094609;28;20276;-53
2023/01/02 00:30:49;;;;;;;11.80;8.40;;;9.50;99.90;;;;;;5094532;28;20268;-50
2023/01/02 00:33:15;;;;;;;9.93;8.10;;;9.50;99.90;;;;;;5095023;28;20190;-52
2023/01/02 00:35:40;;;;;;;9.13;7.60;;;9.40;99.90;;;;;;5094511;28;20166;-51
2023/01/02 00:38:06;;;;;;;10.13;8.17;;;9.40;99.90;;;;;;5093661;28;20205;-53
2023/01/02 00:40:32;;;;;;;10.57;8.03;;;9.40;99.90;;;;;;5093318;28;20182;-51
2023/01/02 00:42:57;;;;;;;8.73;7.47;;;9.40;99.90;;;;;;5094366;28;20242;-53
2023/01/02 00:45:23;;;;;;;12.00;8.10;;;9.30;99.90;;;;;;5094198;28;20205;-52
2023/01/02 00:47:48;;;;;;;9.00;7.60;;;9.30;99.90;;;;;;5093885;28;20165;-53
2023/01/02 00:50:14;;;;;;;10.80;8.67;;;9.30;99.90;;;;;;5094478;28;20174;-53
2023/01/02 00:52:40;;;;;;;12.47;8.63;;;9.30;99.90;;;;;;5094418;28;20182;-51
2023/01/02 00:55:06;;;;;;;8.87;7.97;;;9.30;99.90;;;;;;5094332;28;20169;-54
2023/01/02 00:57:31;;;;;;;10.10;8.00;;;9.30;99.90;;;;;;5094366;28;20181;-52
2023/01/02 00:59:57;;;;;;;8.93;8.03;;;9.30;99.90;;;;;;5094252;28;20174;-50
2023/01/02 01:02:22;;;;;;;8.57;7.07;;;9.20;99.90;;;;;;5094270;28;20190;-52
2023/01/02 01:04:48;;;;;;;9.10;7.73;;;9.30;99.90;;;;;;5093867;28;20223;-54
2023/01/02 01:07:14;;;;;;;9.73;8.57;;;9.20;99.90;;;;;;5094265;28;20170;-53
2023/01/02 01:09:40;;;;;;;8.73;6.70;;;9.30;99.90;;;;;;5093860;28;20194;-52
2023/01/02 01:12:06;;;;;;;9.07;7.43;;;9.20;99.90;;;;;;5093918;28;20209;-53
2023/01/02 01:14:31;;;;;;;9.23;7.73;;;9.20;99.90;;;;;;5093583;28;20177;-53
2023/01/02 01:16:57;;;;;;;8.57;7.40;;;9.20;99.90;;;;;;5094182;28;20170;-53
2023/01/02 01:19:22;;;;;;;8.53;6.93;;;10.20;99.90;;;;;;5093971;28;20537;-49
2023/01/02 01:21:48;;;;;;;7.70;6.90;;;9.20;99.90;;;;;;5093891;28;20273;-49
2023/01/02 01:24:14;;;;;;;7.47;6.60;;;9.20;99.90;;;;;;5093527;28;20174;-49
2023/01/02 01:26:40;;;;;;;8.23;7.00;;;9.20;99.90;;;;;;5093715;28;20185;-49
2023/01/02 01:29:05;;;;;;;7.87;6.80;;;9.10;99.90;;;;;;5093801;28;20210;-50
2023/01/02 01:31:31;;;;;;;8.40;6.93;;;9.10;99.90;;;;;;5093654;28;20177;-49
2023/01/02 01:33:56;;;;;;;8.70;7.67;;;9.10;99.90;;;;;;5093491;28;20250;-50
2023/01/02 01:36:24;;;;;;;11.20;8.23;;;9.10;99.90;;;;;;5093586;28;20170;-49
2023/01/02 01:38:49;;;;;;;8.10;6.90;;;9.10;99.90;;;;;;5093555;28;20174;-49
2023/01/02 01:41:21;;;;;;;8.70;7.80;;;9.10;99.90;;;;;;5093426;28;20661;-51
2023/01/02 01:43:49;;;;;;;9.67;8.00;;;9.10;99.90;;;;;;5093199;28;20226;-49
2023/01/02 01:46:37;;;;;;;9.83;8.27;;;9.00;99.90;;;;;;5093216;28;20253;-49
2023/01/02 01:49:02;;;;;;;12.43;8.30;;;9.00;99.90;;;;;;5092726;28;20574;-49
2023/01/02 01:51:30;;;;;;;10.00;8.10;;;9.00;99.90;;;;;;5093187;28;20174;-49
2023/01/02 01:54:04;;;;;;;9.80;8.73;;;9.00;99.90;;;;;;5092794;28;20189;-50
2023/01/02 01:56:32;;;;;;;9.97;8.30;;;10.50;99.90;;;;;;5093144;28;20197;-49
2023/01/02 01:58:58;;;;;;;9.10;7.70;;;8.80;99.90;;;;;;5093152;28;20186;-49
2023/01/02 02:01:24;;;;;;;7.70;6.53;;;8.80;99.90;;;;;;5093039;28;20224;-49
2023/01/02 02:03:50;;;;;;;7.50;6.57;;;8.80;99.90;;;;;;5092564;28;20193;-49
2023/01/02 02:06:17;;;;;;;8.07;6.80;;;8.80;99.90;;;;;;5093004;28;20200;-49
2023/01/02 02:08:58;;;;;;;6.97;5.93;;;8.80;99.90;;;;;;5092743;28;20193;-49
2023/01/02 02:11:24;;;;;;;6.67;5.67;;;8.80;99.90;;;;;;5092951;28;20180;-49
2023/01/02 02:13:50;;;;;;;7.73;6.30;;;8.80;99.90;;;;;;5092265;28;20217;-49
2023/01/02 02:16:16;;;;;;;7.73;6.73;;;8.80;99.90;;;;;;5092576;28;20170;-48
2023/01/02 02:19:07;;;;;;;7.53;6.53;;;8.70;99.90;;;;;;5092802;28;20535;-49
2023/01/02 02:21:54;;;;;;;8.27;6.77;;;8.80;99.90;;;;;;5092840;28;20169;-49
2023/01/02 02:24:48;;;;;;;7.37;6.57;;;8.80;99.90;;;;;;5091988;28;20174;-49
2023/01/02 02:27:26;;;;;;;7.17;5.77;;;8.70;99.90;;;;;;5092772;28;20178;-53
2023/01/02 02:30:01;;;;;;;6.70;6.00;;;8.70;99.90;;;;;;5092465;28;20205;-53
2023/01/02 02:32:54;;;;;;;9.57;6.77;;;8.70;99.90;;;;;;5092649;28;20192;-49
2023/01/02 02:35:48;;;;;;;8.40;6.50;;;8.70;99.90;;;;;;5092043;28;20218;-51
2023/01/02 02:38:28;;;;;;;9.00;7.67;;;9.10;99.90;;;;;;5092512;28;20170;-49
2023/01/02 02:41:11;;;;;;;7.10;6.20;;;8.60;99.90;;;;;;5092504;28;20242;-49
2023/01/02 02:44:04;;;;;;;7.87;6.30;;;8.60;99.90;;;;;;5092022;28;20221;-49
2023/01/02 02:46:48;;;;;;;8.40;6.63;;;8.50;99.90;;;;;;5092562;28;20539;-49
2023/01/02 02:49:19;;;;;;;8.90;6.37;;;8.50;99.90;;;;;;5092109;28;20228;-51
2023/01/02 02:51:59;;;;;;;8.37;6.87;;;8.50;99.90;;;;;;5090911;28;20197;-50
2023/01/02 02:54:34;;;;;;;7.97;6.80;;;8.50;99.90;;;;;;5090300;28;20444;-49
2023/01/02 02:57:02;;;;;;;8.17;7.00;;;8.50;99.90;;;;;;5092244;28;20173;-49
2023/01/02 02:59:29;;;;;;;7.50;5.93;;;8.60;99.90;;;;;;5092118;28;20547;-49
2023/01/02 03:01:54;;;;;;;5.77;4.93;;;8.60;99.90;;;;;;5091588;28;20193;-50
2023/01/02 03:04:21;;;;;;;6.97;5.23;;;8.60;99.90;;;;;;5091736;28;20650;-50
2023/01/02 03:07:20;;;;;;;6.13;5.33;;;8.60;99.90;;;;;;5091941;28;20206;-50
2023/01/02 03:10:07;;;;;;;8.10;5.87;;;8.40;99.90;;;;;;5090856;28;20213;-49
2023/01/02 03:12:46;;;;;;;10.07;5.53;;;8.30;99.90;;;;;;5091670;28;20278;-49
2023/01/02 03:15:39;;;;;;;6.47;5.27;;;8.50;99.90;;;;;;5091462;28;20534;-51
2023/01/02 03:18:15;;;;;;;8.00;5.63;;;8.40;99.90;;;;;;5090801;28;20638;-50
2023/01/02 03:20:56;;;;;;;6.73;5.10;;;8.50;99.90;;;;;;5091895;28;20694;-49
2023/01/02 03:23:25;;;;;;;6.03;5.10;;;8.50;99.90;;;;;;5091668;28;20190;-49
2023/01/02 03:25:52;;;;;;;6.13;4.53;;;8.40;99.90;;;;;;5091546;28;20588;-49
2023/01/02 03:28:20;;;;;;;6.20;5.30;;;8.30;99.90;;;;;;5091777;28;20705;-49
2023/01/02 03:30:51;;;;;;;6.10;5.00;;;8.20;99.90;;;;;;5091795;28;20611;-54
2023/01/02 03:33:19;;;;;;;7.50;5.03;;;8.30;99.90;;;;;;5091360;28;20729;-51
2023/01/02 03:35:49;;;;;;;6.20;5.47;;;8.20;99.90;;;;;;5091465;28;20226;-50
2023/01/02 03:38:24;;;;;;;6.80;5.70;;;8.20;99.90;;;;;;5091454;28;20185;-49
2023/01/02 03:40:59;;;;;;;6.43;5.27;;;8.20;99.90;;;;;;5091856;28;20176;-53
2023/01/02 03:43:28;;;;;;;7.83;5.33;;;8.20;99.90;;;;;;5091501;28;20277;-50
2023/01/02 03:46:07;;;;;;;6.90;5.40;;;8.10;99.90;;;;;;5091237;28;20185;-49
2023/01/02 03:48:54;;;;;;;5.73;4.87;;;8.10;99.90;;;;;;5091411;28;20202;-49
2023/01/02 03:51:20;;;;;;;7.33;6.10;;;8.00;99.90;;;;;;5091777;28;20177;-50
2023/01/02 03:53:48;;;;;;;8.13;5.57;;;8.00;99.90;;;;;;5091108;28;20268;-52
2023/01/02 03:56:26;;;;;;;7.40;5.60;;;7.90;99.90;;;;;;5091502;28;20657;-50
2023/01/02 03:59:05;;;;;;;6.87;5.70;;;7.90;99.90;;;;;;5091743;28;20177;-53
2023/01/02 04:01:47;;;;;;;6.77;5.03;;;7.90;99.90;;;;;;5091542;28;20178;-50
2023/01/02 04:04:19;;;;;;;6.73;5.60;;;7.90;99.90;;;;;;5091196;28;20256;-49
2023/01/02 04:06:50;;;;;;;7.67;6.87;;;7.90;99.90;;;;;;5091536;28;20546;-52
2023/01/02 04:09:19;;;;;;;9.00;7.00;;;8.00;99.90;;;;;;5091393;28;20350;-50
2023/01/02 04:11:52;;;;;;;6.00;5.40;;;8.00;99.90;;;;;;5091276;28;20256;-49
2023/01/02 04:14:33;;;;;;;5.97;4.80;;;8.00;99.90;;;;;;5094238;28;20189;-50
2023/01/02 04:17:02;;;;;;;5.43;4.63;;;8.00;99.90;;;;;;5094892;28;20178;-52
2023/01/02 04:19:58;;;;;;;7.07;5.80;;;7.90;99.90;;;;;;5095042;28;20671;-51
2023/01/02 04:22:28;;;;;;;10.47;7.70;;;7.90;99.90;;;;;;5094965;28;20208;-50
2023/01/02 04:25:02;;;;;;;17.57;13.70;;;7.90;99.90;;;;;;5094589;28;20173;-50
2023/01/02 04:27:33;;;;;;;9.20;6.13;;;7.90;99.90;;;;;;5094831;28;20181;-53
2023/01/02 04:29:59;;;;;;;7.07;5.43;;;7.90;99.90;;;;;;5094840;28;20566;-49
2023/01/02 04:32:26;;;;;;;7.27;5.83;;;7.80;99.90;;;;;;5094869;28;20192;-50
2023/01/02 04:34:53;;;;;;;10.47;8.40;;;7.70;99.90;;;;;;5094530;28;20170;-51
2023/01/02 04:37:34;;;;;;;10.53;8.73;;;7.70;99.90;;;;;;5094538;28;20162;-53
2023/01/02 04:40:04;;;;;;;5.97;5.20;;;7.80;99.90;;;;;;5094629;28;20189;-49
2023/01/02 04:42:30;;;;;;;7.27;6.27;;;7.60;99.90;;;;;;5094560;28;20189;-52
2023/01/02 04:44:55;;;;;;;7.30;6.33;;;7.60;99.90;;;;;;5094312;28;20180;-52
2023/01/02 04:47:21;;;;;;;7.53;5.60;;;7.50;99.90;;;;;;5094477;28;20209;-50
2023/01/02 04:49:46;;;;;;;6.37;5.23;;;7.50;99.90;;;;;;5094503;28;20198;-49
2023/01/02 04:52:12;;;;;;;7.97;6.73;;;7.50;99.90;;;;;;5094313;28;20216;-49
2023/01/02 04:54:37;;;;;;;8.17;7.37;;;7.50;99.90;;;;;;5094034;28;20699;-51
2023/01/02 04:57:03;;;;;;;16.40;12.10;;;7.50;99.90;;;;;;5094432;28;20196;-50
2023/01/02 04:59:29;;;;;;;8.90;7.43;;;7.60;99.90;;;;;;5094425;28;20178;-50
2023/01/02 05:01:54;;;;;;;8.60;6.43;;;7.50;99.90;;;;;;5094154;28;20264;-50
2023/01/02 05:04:20;;;;;;;10.73;8.80;;;7.50;99.90;;;;;;5093980;28;20543;-49
2023/01/02 05:06:45;;;;;;;10.20;8.10;;;6.40;99.90;;;;;;5094170;28;20244;-54
2023/01/02 05:09:11;;;;;;;16.03;14.33;;;7.40;99.90;;;;;;5093807;28;20212;-51
2023/01/02 05:11:36;;;;;;;9.57;8.57;;;7.40;99.90;;;;;;5093902;28;20598;-49
2023/01/02 05:14:02;;;;;;;8.33;7.53;;;7.40;99.90;;;;;;5093639;28;20170;-53
2023/01/02 05:16:27;;;;;;;7.40;5.70;;;7.40;99.90;;;;;;5094045;28;20166;-52
2023/01/02 05:18:53;;;;;;;6.90;6.20;;;9.10;99.90;;;;;;5093952;28;20264;-49
2023/01/02 05:24:13;;;;;;;7.40;5.83;;;7.40;99.90;;;;;;5070490;28;20186;-49
2023/01/02 05:26:39;;;;;;;8.10;6.70;;;7.40;99.90;;;;;;5071342;28;20727;-52
2023/01/02 05:29:04;;;;;;;7.60;6.50;;;7.30;99.90;;;;;;5071090;28;20214;-52
2023/01/02 05:31:30;;;;;;;6.80;5.60;;;7.20;99.90;;;;;;5071276;28;20174;-49
2023/01/02 05:33:57;;;;;;;7.07;5.53;;;7.20;99.90;;;;;;5070629;28;21265;-49
2023/01/02 05:36:24;;;;;;;9.43;5.70;;;7.10;99.90;;;;;;5070983;28;20178;-54
2023/01/02 05:38:51;;;;;;;5.97;5.37;;;7.00;99.90;;;;;;5070965;28;20179;-49
2023/01/02 05:41:18;;;;;;;5.87;5.00;;;7.00;99.90;;;;;;5071055;28;20237;-51
2023/01/02 05:43:44;;;;;;;5.17;4.67;;;6.90;99.90;;;;;;5070513;28;20567;-52
2023/01/02 05:46:15;;;;;;;6.27;5.53;;;7.00;99.90;;;;;;5070787;28;20266;-51
2023/01/02 05:48:41;;;;;;;5.30;4.80;;;7.00;99.90;;;;;;5070637;28;20210;-52
2023/01/02 05:51:09;;;;;;;4.37;3.97;;;7.00;99.90;;;;;;5070768;28;20174;-51
2023/01/02 05:53:35;;;;;;;5.10;4.60;;;6.90;99.90;;;;;;5070338;28;20203;-49
2023/01/02 05:56:11;;;;;;;5.20;4.70;;;6.90;99.90;;;;;;5070507;28;20186;-53
2023/01/02 05:58:39;;;;;;;5.20;4.70;;;6.90;99.90;;;;;;5070742;28;20181;-49
2023/01/02 06:01:10;;;;;;;5.40;4.67;;;7.00;99.90;;;;;;5085802;28;20186;-54
2023/01/02 06:03:36;;;;;;;4.57;4.17;;;6.90;99.90;;;;;;5092835;28;20194;-49
2023/01/02 06:06:07;;;;;;;5.03;4.53;;;7.00;99.90;;;;;;5092865;28;20181;-51
2023/01/02 06:08:33;;;;;;;5.57;3.97;;;7.00;99.90;;;;;;5093168;28;20678;-50
2023/01/02 06:10:59;;;;;;;5.10;4.50;;;7.00;99.90;;;;;;5092833;28;20183;-51
2023/01/02 06:13:26;;;;;;;6.70;4.70;;;7.00;99.90;;;;;;5092769;28;20209;-52
2023/01/02 06:15:54;;;;;;;5.23;4.30;;;7.00;99.90;;;;;;5092525;28;20219;-52
2023/01/02 06:18:20;;;;;;;5.50;4.97;;;7.00;99.90;;;;;;5092913;28;20654;-53
2023/01/02 06:20:45;;;;;;;6.90;5.30;;;7.10;99.90;;;;;;5092210;28;20298;-54
2023/01/02 06:23:11;;;;;;;6.07;4.90;;;7.40;99.90;;;;;;5091781;28;20562;-51
2023/01/02 06:25:36;;;;;;;5.97;4.67;;;8.80;99.90;;;;;;5091736;28;20178;-49
2023/01/02 06:28:02;;;;;;;5.30;4.80;;;7.10;99.90;;;;;;5091192;28;20663;-50
2023/01/02 06:30:28;;;;;;;5.87;5.27;;;7.10;99.90;;;;;;5092618;28;20177;-53
2023/01/02 06:32:55;;;;;;;6.60;5.33;;;7.10;99.90;;;;;;5092425;28;20186;-54
2023/01/02 06:35:21;;;;;;;5.13;4.63;;;7.00;99.90;;;;;;5092128;28;20170;-53
2023/01/02 06:37:46;;;;;;;5.53;4.80;;;8.50;99.90;;;;;;5091784;28;20176;-52
2023/01/02 06:40:12;;;;;;;6.67;5.70;;;7.00;99.90;;;;;;5092588;28;20251;-52
2023/01/02 06:42:37;;;;;;;6.80;5.50;;;7.00;99.90;;;;;;5092680;28;20201;-52
2023/01/02 06:45:04;;;;;;;6.53;5.50;;;7.00;99.90;;;;;;5092313;28;20227;-52
2023/01/02 06:47:29;;;;;;;7.03;5.77;;;7.00;99.90;;;;;;5092740;28;20184;-51
2023/01/02 06:49:55;;;;;;;5.30;4.80;;;6.90;99.90;;;;;;5092680;28;20288;-51
2023/01/02 06:52:21;;;;;;;5.30;4.80;;;6.90;99.90;;;;;;5092609;28;20189;-49
2023/01/02 06:54:46;;;;;;;5.83;4.97;;;6.90;99.90;;;;;;5092300;28;20178;-50
2023/01/02 06:57:12;;;;;;;5.10;4.60;;;6.90;99.90;;;;;;5092788;28;20178;-50
2023/01/02 06:59:37;;;;;;;5.90;5.13;;;6.90;99.90;;;;;;5093137;28;20257;-50
2023/01/02 07:02:03;;;;;;;5.37;4.87;;;6.90;99.90;;;;;;5092302;28;20251;-49
2023/01/02 07:04:28;;;;;;;4.40;4.00;;;6.90;99.90;;;;;;5091793;28;20177;-50
2023/01/02 07:06:54;;;;;;;4.60;4.20;;;6.80;99.90;;;;;;5092354;28;20174;-49
2023/01/02 07:09:19;;;;;;;4.77;4.27;;;6.80;99.90;;;;;;5091906;28;20198;-51
2023/01/02 07:11:45;;;;;;;4.23;3.80;;;6.90;99.90;;;;;;5091977;28;20695;-50
2023/01/02 07:14:11;;;;;;;4.50;4.10;;;6.60;99.90;;;;;;5091680;28;20189;-49
2023/01/02 07:16:36;;;;;;;5.93;3.87;;;6.70;99.90;;;;;;5091140;28;20207;-48
2023/01/02 07:19:02;;;;;;;6.23;5.50;;;6.70;99.90;;;;;;5091818;28;20260;-49
2023/01/02 07:21:29;;;;;;;7.03;5.90;;;6.60;99.90;;;;;;5092056;28;20177;-51
2023/01/02 07:23:54;;;;;;;6.50;5.80;;;6.60;99.90;;;;;;5090263;28;20247;-51
2023/01/02 07:26:20;;;;;;;5.83;5.20;;;6.70;99.90;;;;;;5091934;28;20173;-51
2023/01/02 07:28:46;;;;;;;5.60;4.80;;;7.60;99.90;;;;;;5091862;28;20201;-50
2023/01/02 07:31:14;;;;;;;5.90;5.30;;;6.90;99.90;;;;;;5091898;28;20711;-51
2023/01/02 07:33:40;;;;;;;4.70;4.30;;;6.90;99.90;;;;;;5091535;28;20613;-51
2023/01/02 07:36:09;;;;;;;4.27;3.87;;;7.00;99.90;;;;;;5091746;28;20198;-49
2023/01/02 07:38:37;;;;;;;5.50;4.13;;;7.00;99.90;;;;;;5091711;28;20631;-51
2023/01/02 07:41:02;;;;;;;4.63;4.23;;;7.00;99.90;;;;;;5090717;28;20347;-52
2023/01/02 07:43:28;;;;;;;4.77;4.37;;;7.10;99.90;;;;;;5091438;28;20193;-49
2023/01/02 07:46:00;;;;;;;5.50;5.00;;;7.10;99.90;;;;;;5091564;28;20178;-49
2023/01/02 07:48:28;;;;;;;6.57;5.40;;;7.10;99.90;;;;;;5094458;28;20542;-48
2023/01/02 07:51:02;;;;;;;6.20;5.57;;;7.10;99.90;;;;;;5095687;28;20170;-50
2023/01/02 07:53:28;;;;;;;5.53;4.90;;;7.20;99.90;;;;;;5095476;28;20294;-49
2023/01/02 07:55:54;;;;;;;5.70;5.13;;;7.30;99.90;;;;;;5095386;28;20205;-49
2023/01/02 07:58:20;;;;;;;5.87;5.10;;;7.40;99.90;;;;;;5094292;28;20227;-50
2023/01/02 08:00:46;;;;;;;5.57;5.07;;;7.40;99.90;;;;;;5095474;28;20177;-53
2023/01/02 08:03:11;;;;;;;5.40;4.90;;;7.60;99.90;;;;;;5095245;28;20221;-50
2023/01/02 08:05:37;;;;;;;6.33;5.60;;;7.70;99.90;;;;;;5095104;28;20178;-51
2023/01/02 08:08:02;;;;;;;8.23;5.80;;;8.00;99.90;;;;;;5095262;28;20174;-51
2023/01/02 08:10:28;;;;;;;6.80;6.13;;;8.30;99.90;;;;;;5095221;28;20201;-50
2023/01/02 08:12:53;;;;;;;6.30;5.10;;;8.90;99.90;;;;;;5095037;28;20201;-50
2023/01/02 08:15:19;;;;;;;5.57;4.87;;;9.60;99.90;;;;;;5094921;28;20201;-51
2023/01/02 08:17:44;;;;;;;5.20;4.57;;;10.60;99.90;;;;;;5095093;28;20162;-50
2023/01/02 08:20:10;;;;;;;7.00;5.17;;;11.80;99.90;;;;;;5095185;28;20177;-50
2023/01/02 08:22:36;;;;;;;7.60;6.47;;;13.20;99.90;;;;;;5094873;28;20218;-49
2023/01/02 08:25:02;;;;;;;6.20;5.60;;;14.60;99.90;;;;;;5095089;28;20235;-52
2023/01/02 08:27:28;;;;;;;5.50;5.00;;;15.90;99.90;;;;;;5094881;28;20178;-50
2023/01/02 08:29:53;;;;;;;5.83;5.23;;;17.20;99.90;;;;;;5094835;28;20194;-51
2023/01/02 08:32:19;;;;;;;9.30;7.13;;;18.30;99.40;;;;;;5094759;28;20220;-52
2023/01/02 08:34:44;;;;;;;7.80;5.47;;;19.00;97.30;;;;;;5094416;28;20708;-50
2023/01/02 08:37:10;;;;;;;5.30;3.97;;;19.20;96.10;;;;;;5094832;28;20696;-51
2023/01/02 08:39:36;;;;;;;4.73;4.20;;;19.10;95.00;;;;;;5093373;28;20654;-53
2023/01/02 08:42:01;;;;;;;5.63;4.50;;;19.10;94.80;;;;;;5094888;28;20532;-50
2023/01/02 08:44:27;;;;;;;5.40;4.90;;;18.70;94.60;;;;;;5094205;28;20520;-50
2023/01/02 08:46:52;;;;;;;6.13;4.60;;;18.40;94.80;;;;;;5094666;28;20177;-51
2023/01/02 08:49:18;;;;;;;5.13;4.23;;;18.10;95.10;;;;;;5094482;28;20228;-51
2023/01/02 08:51:43;;;;;;;4.20;3.80;;;17.90;95.50;;;;;;5094144;28;20184;-50
2023/01/02 08:54:09;;;;;;;4.03;3.60;;;17.90;95.80;;;;;;5093754;28;20177;-52
2023/01/02 08:56:36;;;;;;;3.77;3.37;;;18.00;95.40;;;;;;5094467;28;20205;-55
2023/01/02 08:59:04;;;;;;;4.33;3.20;;;18.10;95.60;;;;;;5093513;28;20174;-50
2023/01/02 09:01:31;;;;;;;4.17;3.77;;;18.20;95.50;;;;;;5094027;28;20180;-50
2023/01/02 09:03:57;;;;;;;7.33;6.00;;;18.50;95.50;;;;;;5094002;28;20281;-51
2023/01/02 09:06:25;;;;;;;7.27;5.53;;;18.90;95.60;;;;;;5094499;28;20635;-51
2023/01/02 09:08:51;;;;;;;5.32;4.10;;;19.80;94.60;;;;;;5094054;28;20257;-54
2023/01/02 09:11:20;;;;;;;4.55;3.45;;;21.10;93.20;;;;;;5093714;28;20252;-53
2023/01/02 09:13:46;;;;;;;3.15;2.95;;;22.70;91.40;;;;;;5092489;28;20283;-51
2023/01/02 09:16:12;;;;;;;2.70;2.50;;;24.30;88.70;;;;;;5093912;28;20226;-48
2023/01/02 09:18:39;;;;;;;2.95;2.40;;;25.50;82.50;;;;;;5094069;28;20166;-51
2023/01/02 09:21:04;;;;;;;2.40;2.30;;;26.60;77.20;;;;;;5093927;28;20211;-52
2023/01/02 09:23:31;;;;;;;3.60;2.47;;;27.70;72.80;;;;;;5093646;28;20178;-50
2023/01/02 09:25:58;;;;;;;2.72;2.53;;;28.70;69.00;;;;;;5093384;28;20205;-50
2023/01/02 09:28:24;;;;;;;2.92;2.70;;;29.60;65.40;;;;;;5093810;28;20752;-49
2023/01/02 09:30:49;;;;;;;2.78;2.58;;;30.50;61.70;;;;;;5093539;28;20253;-50
2023/01/02 09:33:15;;;;;;;2.78;2.58;;;31.20;58.90;;;;;;5093659;28;20221;-49
2023/01/02 09:35:40;;;;;;;2.80;2.47;;;31.90;56.90;;;;;;5093317;28;20592;-53
2023/01/02 09:38:06;;;;;;;2.40;2.20;;;32.60;54.80;;;;;;5093139;28;20538;-51
2023/01/02 09:40:33;;;;;;;2.30;2.20;;;33.20;52.00;;;;;;5093653;28;20174;-51
2023/01/02 09:42:59;;;;;;;2.10;2.00;;;33.20;49.00;;;;;;5093253;28;20670;-50
2023/01/02 09:45:25;;;;;;;2.20;2.00;;;33.40;48.90;;;;;;5093262;28;20177;-50
2023/01/02 09:47:54;;;;;;;2.90;2.30;;;33.60;48.90;;;;;;5093235;28;20253;-53
2023/01/02 09:50:28;;;;;;;2.60;2.38;;;34.00;48.00;;;;;;5093290;28;20220;-53
2023/01/02 09:52:59;;;;;;;3.08;2.53;;;34.50;47.00;;;;;;5093515;28;20662;-53
2023/01/02 09:55:49;;;;;;;2.92;2.55;;;35.00;46.20;;;;;;5093003;28;20205;-51
2023/01/02 09:58:30;;;;;;;3.60;2.80;;;35.40;44.20;;;;;;5093140;28;20212;-53
2023/01/02 10:00:58;;;;;;;2.88;2.67;;;36.00;43.20;;;;;;5093196;28;20361;-52
2023/01/02 10:03:29;;;;;;;2.60;2.40;;;36.40;41.50;;;;;;5092884;28;20674;-49
2023/01/02 10:06:13;;;;;;;3.45;3.15;;;36.70;41.20;;;;;;5092819;28;20169;-54
2023/01/02 10:09:09;;;;;;;3.38;3.08;;;37.00;39.60;;;;;;5092941;28;20196;-49
2023/01/02 10:12:01;;;;;;;2.50;2.30;;;37.10;39.40;;;;;;5092923;28;20166;-51
2023/01/02 10:14:58;;;;;;;2.60;2.40;;;36.50;39.40;;;;;;5093724;28;20215;-50
2023/01/02 10:17:27;;;;;;;2.50;2.40;;;35.80;39.00;;;;;;5092961;28;20646;-54
2023/01/02 10:20:18;;;;;;;5.78;5.22;;;35.50;39.90;;;;;;5092856;28;20249;-53
2023/01/02 10:22:50;;;;;;;5.00;4.60;;;35.80;40.00;;;;;;5093058;28;20212;-53
2023/01/02 10:25:41;;;;;;;5.68;5.20;;;36.30;39.10;;;;;;5092634;28;20181;-54
2023/01/02 10:28:37;;;;;;;5.32;4.93;;;36.50;38.70;;;;;;5092218;28;20193;-54
2023/01/02 10:31:26;;;;;;;5.68;5.18;;;36.70;37.10;;;;;;5092474;28;20605;-51
2023/01/02 10:33:57;;;;;;;4.80;4.40;;;36.20;38.30;;;;;;5092181;28;20235;-51
2023/01/02 10:36:31;;;;;;;4.90;4.40;;;36.40;38.50;;;;;;5092105;28;20223;-54
2023/01/02 10:39:00;;;;;;;5.82;4.97;;;36.80;38.10;;;;;;5092635;28;20169;-53
2023/01/02 10:41:28;;;;;;;4.80;4.40;;;37.20;36.80;;;;;;5092376;28;20169;-52
2023/01/02 10:43:58;;;;;;;4.45;4.05;;;37.40;36.90;;;;;;5092097;28;20182;-53
2023/01/02 10:46:30;;;;;;;4.80;4.40;;;37.80;37.20;;;;;;5092211;28;20170;-55
2023/01/02 10:48:56;;;;;;;5.63;4.40;;;38.10;36.70;;;;;;5092333;28;20700;-52
2023/01/02 10:51:23;;;;;;;4.90;4.50;;;38.30;35.80;;;;;;5092203;28;20218;-53
2023/01/02 10:54:02;;;;;;;5.20;4.80;;;38.30;35.10;;;;;;5091907;28;20181;-50
2023/01/02 10:56:31;;;;;;;5.20;4.80;;;37.80;35.60;;;;;;5092148;28;20169;-54
2023/01/02 10:58:58;;;;;;;4.85;4.40;;;37.90;36.40;;;;;;5092227;28;20173;-51
2023/01/02 11:01:24;;;;;;;5.55;4.78;;;38.30;36.10;;;;;;5091974;28;20183;-53
2023/01/02 11:03:58;;;;;;;6.18;5.68;;;38.50;35.50;;;;;;5091786;28;20189;-52
2023/01/02 11:06:32;;;;;;;5.88;5.38;;;38.30;35.00;;;;;;5091804;28;20177;-51
2023/01/02 11:08:59;;;;;;;5.10;4.70;;;37.90;34.30;;;;;;5090935;28;20189;-53
2023/01/02 11:11:26;;;;;;;5.35;4.93;;;36.70;36.20;;;;;;5092121;28;20573;-53
2023/01/02 11:13:54;;;;;;;5.28;4.78;;;36.40;36.60;;;;;;5091520;28;20752;-53
2023/01/02 11:16:22;;;;;;;6.07;5.57;;;36.70;36.60;;;;;;5091858;28;20646;-54
2023/01/02 11:18:57;;;;;;;6.22;5.72;;;36.80;36.00;;;;;;5091964;28;20252;-53
2023/01/02 11:21:32;;;;;;;5.60;5.10;;;36.60;36.00;;;;;;5091961;28;20176;-54
2023/01/02 11:24:03;;;;;;;7.03;6.43;;;36.30;35.90;;;;;;5091004;28;20283;-53
2023/01/02 11:26:31;;;;;;;7.97;7.28;;;35.60;36.40;;;;;;5091607;28;20169;-52
2023/01/02 11:29:07;;;;;;;6.30;5.80;;;34.40;37.90;;;;;;5091688;28;20215;-52
2023/01/02 11:31:33;;;;;;;5.60;5.10;;;33.80;38.90;;;;;;5091878;28;20165;-54
2023/01/02 11:34:35;;;;;;;5.90;5.40;;;33.90;38.60;;;;;;5091367;28;20238;-53
2023/01/02 11:37:11;;;;;;;6.10;5.60;;;32.90;39.40;;;;;;5049267;28;20183;-51
2023/01/02 11:39:38;;;;;;;5.45;4.95;;;32.40;40.50;;;;;;5049272;28;20210;-52
2023/01/02 11:45:12;;;;;;;6.78;6.28;;;33.30;39.90;;;;;;5049069;28;20190;-53
2023/01/02 11:47:48;;;;;;;5.63;5.13;;;33.70;38.90;;;;;;5049206;28;20180;-54
2023/01/02 11:50:33;;;;;;;7.65;7.00;;;33.70;39.80;;;;;;5048926;28;20230;-54
2023/01/02 11:53:11;;;;;;;6.57;5.88;;;33.90;38.80;;;;;;5048306;28;20199;-54
2023/01/02 11:55:42;;;;;;;5.72;5.30;;;33.70;38.60;;;;;;5048663;28;20251;-51
2023/01/02 11:58:16;;;;;;;7.32;6.63;;;33.50;39.70;;;;;;5048999;28;20671;-54
2023/01/02 12:00:43;;;;;;;7.75;7.05;;;33.60;39.70;;;;;;5048890;28;20183;-53
2023/01/02 12:03:23;;;;;;;6.20;5.70;;;34.00;40.10;;;;;;5048277;28;20186;-53
2023/01/02 12:05:52;;;;;;;6.50;5.90;;;34.40;40.20;;;;;;5048340;28;20660;-54
2023/01/02 12:08:36;;;;;;;6.90;6.20;;;33.70;40.60;;;;;;5048923;28;20184;-54
2023/01/02 12:11:21;;;;;;;7.10;6.40;;;32.90;41.40;;;;;;5048891;28;20172;-54
2023/01/02 12:14:12;;;;;;;6.70;6.20;;;32.40;42.20;;;;;;5091066;28;20214;-54
2023/01/02 12:17:12;;;;;;;8.77;6.60;;;32.20;42.20;;;;;;5091371;28;20201;-53
2023/01/02 12:19:52;;;;;;;7.20;6.57;;;31.50;43.60;;;;;;5105758;28;20192;-54
2023/01/02 12:22:52;;;;;;;7.25;6.57;;;30.80;44.40;;;;;;5111533;28;20196;-54
2023/01/02 12:25:38;;;;;;;7.43;6.72;;;30.30;44.80;;;;;;5111169;28;20173;-56
2023/01/02 12:28:16;;;;;;;6.82;6.18;;;29.60;45.30;;;;;;5111788;28;20173;-54
2023/01/02 12:30:54;;;;;;;6.80;6.20;;;29.20;46.30;;;;;;5111308;28;20256;-54
2023/01/02 12:33:41;;;;;;;7.00;6.38;;;28.90;47.00;;;;;;5111513;28;20185;-53
2023/01/02 12:36:34;;;;;;;7.28;6.53;;;28.70;47.70;;;;;;5114728;28;20558;-52
2023/01/02 12:39:35;;;;;;;7.13;6.38;;;29.00;46.70;;;;;;5115234;28;20173;-53
2023/01/02 12:42:21;;;;;;;8.10;7.30;;;29.10;46.30;;;;;;5051624;28;20731;-52
2023/01/02 12:44:53;;;;;;;7.38;6.78;;;29.00;46.30;;;;;;5035301;28;20175;-50
2023/01/02 12:47:46;;;;;;;7.88;7.18;;;28.20;46.30;;;;;;5052006;28;20183;-52
2023/01/02 12:50:32;;;;;;;7.38;6.68;;;27.60;47.30;;;;;;5051886;28;20227;-52
2023/01/02 12:53:26;;;;;;;6.85;6.20;;;27.20;48.20;;;;;;5051808;28;20702;-54
2023/01/02 12:56:12;;;;;;;7.20;6.60;;;26.80;48.90;;;;;;5008194;28;20191;-51
2023/01/02 12:59:08;;;;;;;8.27;7.07;;;26.50;49.10;;;;;;5051598;28;20183;-52
2023/01/02 13:01:39;;;;;;;7.82;7.13;;;26.00;49.90;;;;;;5051696;28;20179;-54
2023/01/02 13:04:11;;;;;;;8.48;7.68;;;25.30;50.70;;;;;;5050948;28;20194;-51
2023/01/02 13:06:42;;;;;;;8.18;7.38;;;24.70;52.10;;;;;;5051363;28;20278;-49
2023/01/02 13:09:16;;;;;;;7.90;7.20;;;23.90;52.70;;;;;;5050919;28;20203;-51
2023/01/02 13:11:47;;;;;;;8.60;7.80;;;23.00;54.80;;;;;;5051112;28;20184;-50
2023/01/02 13:14:20;;;;;;;8.97;8.07;;;22.40;55.70;;;;;;5051082;28;20176;-50
2023/01/02 13:17:11;;;;;;;9.30;8.40;;;21.70;57.60;;;;;;5051421;28;20517;-51
2023/01/02 13:20:03;;;;;;;9.57;8.67;;;21.30;58.50;;;;;;5030145;28;20188;-50